Terminal Aerodrome Forecast
Issued by NWS

Home | Current Version | Previous Version | Text Only | Print | Product List | Glossary On
Versions: 1 2 3 4 5 6 7 8 9 10 11 12 13 14 15
000
FTUS45 KRIW 281100
TAFCPR
TAF
KCPR 281126Z 2812/2912 22015KT P6SM SKC
     FM281400 23016G26KT P6SM SKC
     FM281900 25026G36KT P6SM FEW120
     FM282300 28024G34KT P6SM SCT110
     FM290500 34010KT P6SM SKC
     FM290800 24007KT P6SM SKC=

USA.gov is the U.S. government's official web portal to all federal, state and local government web resources and services.